Time;durP1;ratioP1;P1;durP2;ratioP2;P2;SDS_P1;SDS_P2;PMS_P1;PMS_P2;Temp;Humidity;BMP_temperature;BMP_pressure;BME280_temperature;BME280_humidity;BME280_pressure;Samples;Min_cycle;Max_cycle;Signal;HPM_P1;HPM_P2
2022/09/12 00:01:41;;;;;;;19.90;11.70;;;15.50;99.90;;;;;;5072035;28;20032;-46
2022/09/12 00:04:09;;;;;;;15.57;12.40;;;15.50;99.90;;;;;;5071834;28;20028;-44
2022/09/12 00:06:36;;;;;;;18.98;11.88;;;15.40;99.90;;;;;;5072130;28;20464;-46
2022/09/12 00:09:13;;;;;;;15.30;11.80;;;15.40;99.90;;;;;;5071994;28;20044;-44
2022/09/12 00:11:41;;;;;;;15.50;11.95;;;15.50;99.90;;;;;;5037452;28;20024;-43
2022/09/12 00:14:08;;;;;;;17.08;12.38;;;15.50;99.90;;;;;;5071482;28;20541;-44
2022/09/12 00:16:35;;;;;;;18.65;13.15;;;15.40;99.90;;;;;;5071470;28;20047;-44
2022/09/12 00:19:02;;;;;;;18.80;13.15;;;15.40;99.90;;;;;;5071689;28;20024;-45
2022/09/12 00:21:27;;;;;;;17.55;12.50;;;15.40;99.90;;;;;;5071815;28;20028;-45
2022/09/12 00:23:53;;;;;;;19.33;12.20;;;15.40;99.90;;;;;;5071410;28;20032;-49
2022/09/12 00:26:20;;;;;;;17.52;12.60;;;15.40;99.90;;;;;;5072029;28;20115;-45
2022/09/12 00:28:47;;;;;;;14.82;11.30;;;15.40;99.90;;;;;;5071520;28;20035;-45
2022/09/12 00:31:15;;;;;;;19.00;12.07;;;15.30;99.90;;;;;;5071697;28;20043;-44
2022/09/12 00:33:41;;;;;;;17.75;12.48;;;15.30;99.90;;;;;;5071232;28;20025;-45
2022/09/12 00:36:16;;;;;;;13.98;10.80;;;15.30;99.90;;;;;;5071541;28;20027;-44
2022/09/12 00:38:43;;;;;;;15.65;11.80;;;15.20;99.90;;;;;;5071576;28;20031;-45
2022/09/12 00:41:28;;;;;;;16.15;11.55;;;15.10;99.90;;;;;;5071410;28;20098;-45
2022/09/12 00:43:57;;;;;;;16.67;11.15;;;15.10;99.90;;;;;;5071431;28;20491;-46
2022/09/12 00:46:45;;;;;;;15.38;11.35;;;15.00;99.90;;;;;;5071348;28;20074;-45
2022/09/12 00:49:48;;;;;;;14.73;11.35;;;14.90;99.90;;;;;;5071325;28;20063;-45
2022/09/12 00:52:27;;;;;;;18.70;11.20;;;14.90;99.90;;;;;;5039031;28;20116;-43
2022/09/12 00:55:14;;;;;;;15.00;11.10;;;14.90;99.90;;;;;;5071473;28;20013;-45
2022/09/12 00:57:48;;;;;;;19.65;12.13;;;14.80;99.90;;;;;;5070976;28;20029;-42
2022/09/12 01:00:18;;;;;;;16.17;12.10;;;14.80;99.90;;;;;;5071298;28;20484;-44
2022/09/12 01:02:47;;;;;;;19.20;12.18;;;14.70;99.90;;;;;;5071022;28;20032;-44
2022/09/12 01:05:14;;;;;;;17.85;12.65;;;14.70;99.90;;;;;;5071236;28;20028;-45
2022/09/12 01:07:41;;;;;;;16.08;12.10;;;14.60;99.90;;;;;;5071240;28;20032;-45
2022/09/12 01:10:08;;;;;;;17.20;11.80;;;14.50;99.90;;;;;;5071071;28;20028;-45
2022/09/12 01:12:38;;;;;;;24.17;12.73;;;14.50;99.90;;;;;;5071007;28;20020;-45
2022/09/12 01:15:03;;;;;;;17.70;12.43;;;14.50;99.90;;;;;;5071150;28;20016;-45
2022/09/12 01:17:44;;;;;;;18.25;12.25;;;14.50;99.90;;;;;;5071206;28;20071;-44
2022/09/12 01:20:28;;;;;;;16.38;11.88;;;14.40;99.90;;;;;;5071145;28;20032;-46
2022/09/12 01:23:31;;;;;;;17.52;11.43;;;14.40;99.90;;;;;;5071137;28;20028;-45
2022/09/12 01:26:34;;;;;;;23.98;13.10;;;14.40;99.90;;;;;;5071216;28;20082;-46
2022/09/12 01:29:05;;;;;;;15.85;12.40;;;14.40;99.90;;;;;;5071239;28;20037;-47
2022/09/12 01:31:33;;;;;;;18.40;12.20;;;14.40;99.90;;;;;;5070975;28;20097;-45
2022/09/12 01:34:29;;;;;;;18.35;11.32;;;14.40;99.90;;;;;;5070745;28;20021;-47
2022/09/12 01:37:35;;;;;;;18.20;12.05;;;14.50;99.90;;;;;;5071991;28;20040;-45
2022/09/12 01:40:31;;;;;;;16.63;12.38;;;14.40;99.90;;;;;;5066131;28;20058;-48
2022/09/12 01:43:17;;;;;;;;;;;14.40;99.90;;;;;;5074983;28;20024;-45
2022/09/12 01:45:44;;;;;;;17.60;12.15;;;14.40;99.90;;;;;;5074838;28;20345;-44
2022/09/12 01:48:18;;;;;;;13.48;10.43;;;14.40;99.90;;;;;;5074502;28;20024;-43
2022/09/12 01:51:12;;;;;;;13.60;11.40;;;14.40;99.90;;;;;;5074685;28;20377;-46
2022/09/12 01:53:43;;;;;;;12.55;10.50;;;14.40;99.90;;;;;;5074314;28;20047;-46
2022/09/12 01:56:21;;;;;;;18.13;12.10;;;14.40;99.90;;;;;;5074566;28;20032;-41
2022/09/12 01:58:50;;;;;;;21.02;10.80;;;14.40;99.90;;;;;;5073976;28;20020;-44
2022/09/12 02:01:30;;;;;;;14.63;10.40;;;14.40;99.90;;;;;;5074386;28;20048;-49
2022/09/12 02:04:19;;;;;;;16.35;11.27;;;14.30;99.90;;;;;;5074091;28;20027;-49
2022/09/12 02:07:00;;;;;;;16.30;11.20;;;14.40;99.90;;;;;;5074248;28;20434;-47
2022/09/12 02:09:40;;;;;;;20.40;10.68;;;14.30;99.90;;;;;;5074394;28;20025;-46
2022/09/12 02:12:10;;;;;;;12.02;9.55;;;14.20;99.90;;;;;;5073910;28;20016;-47
2022/09/12 02:14:47;;;;;;;15.48;9.73;;;14.10;99.90;;;;;;5074248;28;20024;-44
2022/09/12 02:17:21;;;;;;;18.95;10.18;;;14.00;99.90;;;;;;5074016;28;20162;-45
2022/09/12 02:20:07;;;;;;;12.90;9.77;;;14.00;99.90;;;;;;5074185;28;20044;-45
2022/09/12 02:22:36;;;;;;;13.70;11.23;;;14.00;99.90;;;;;;5073723;28;20107;-46
2022/09/12 02:25:04;;;;;;;12.55;10.73;;;13.90;99.90;;;;;;5074050;28;20029;-45
2022/09/12 02:27:36;;;;;;;12.98;9.98;;;14.00;99.90;;;;;;5073809;28;20157;-43
2022/09/12 02:30:06;;;;;;;12.23;9.82;;;13.90;99.90;;;;;;5073858;28;20472;-45
2022/09/12 02:32:32;;;;;;;15.10;9.70;;;14.00;99.90;;;;;;5073720;28;20017;-44
2022/09/12 02:35:05;;;;;;;9.93;8.93;;;14.00;99.90;;;;;;5073772;28;20534;-45
2022/09/12 02:38:03;;;;;;;16.98;10.77;;;14.00;99.90;;;;;;5073955;28;20039;-46
2022/09/12 02:40:31;;;;;;;15.00;10.10;;;14.10;99.90;;;;;;5073653;28;20021;-44
2022/09/12 02:42:57;;;;;;;15.00;9.95;;;14.10;99.90;;;;;;5073388;28;20032;-45
2022/09/12 02:45:22;;;;;;;18.98;10.85;;;14.00;99.90;;;;;;5055539;28;20028;-44
2022/09/12 02:47:57;;;;;;;19.65;12.43;;;14.00;99.90;;;;;;5072116;28;20412;-46
2022/09/12 02:50:23;;;;;;;16.02;11.48;;;13.90;99.90;;;;;;5073468;28;20027;-44
2022/09/12 02:52:52;;;;;;;18.42;12.13;;;13.80;99.90;;;;;;5073241;28;20040;-43
2022/09/12 02:55:18;;;;;;;19.75;13.20;;;13.80;99.90;;;;;;5073436;28;20031;-44
2022/09/12 02:57:43;;;;;;;17.27;12.27;;;13.80;99.90;;;;;;5072766;28;20024;-45
2022/09/12 03:00:10;;;;;;;22.00;12.75;;;13.80;99.90;;;;;;5073329;28;20392;-44
2022/09/12 03:03:02;;;;;;;18.95;12.57;;;13.80;99.90;;;;;;5072946;28;20425;-43
2022/09/12 03:05:43;;;;;;;21.02;13.25;;;13.70;99.90;;;;;;5073294;28;20427;-42
2022/09/12 03:08:50;;;;;;;21.48;14.50;;;13.70;99.90;;;;;;5073259;28;20035;-43
2022/09/12 03:11:25;;;;;;;22.20;14.15;;;13.70;99.90;;;;;;5073350;28;20031;-51
2022/09/12 03:14:25;;;;;;;23.13;13.10;;;13.70;99.90;;;;;;5073253;28;20500;-43
2022/09/12 03:17:25;;;;;;;17.88;13.15;;;13.70;99.90;;;;;;5072864;28;20041;-44
2022/09/12 03:19:59;;;;;;;23.20;14.20;;;13.60;99.90;;;;;;5072935;28;20109;-44
2022/09/12 03:22:32;;;;;;;18.42;13.38;;;13.60;99.90;;;;;;5072584;28;20020;-44
2022/09/12 03:25:19;;;;;;;18.60;14.32;;;13.60;99.90;;;;;;5072918;28;20525;-46
2022/09/12 03:27:57;;;;;;;24.15;14.93;;;13.60;99.90;;;;;;5072661;28;20408;-45
2022/09/12 03:30:23;;;;;;;24.77;14.35;;;13.50;99.90;;;;;;5072706;28;20372;-44
2022/09/12 03:32:52;;;;;;;23.25;14.05;;;13.50;99.90;;;;;;5072356;28;20025;-44
2022/09/12 03:35:20;;;;;;;25.08;15.60;;;13.50;99.90;;;;;;5072751;28;20024;-44
2022/09/12 03:37:47;;;;;;;24.58;15.65;;;13.40;99.90;;;;;;5072779;28;20025;-45
2022/09/12 03:40:14;;;;;;;20.17;13.57;;;13.50;99.90;;;;;;5072757;28;20085;-45
2022/09/12 03:42:40;;;;;;;25.00;14.70;;;13.40;99.90;;;;;;5072435;28;20078;-44
2022/09/12 03:45:07;;;;;;;19.40;13.40;;;13.30;99.90;;;;;;5072829;28;20522;-41
2022/09/12 03:47:32;;;;;;;26.05;14.35;;;13.30;99.90;;;;;;5073462;28;20058;-46
2022/09/12 03:49:58;;;;;;;29.17;14.63;;;13.30;99.90;;;;;;5073473;28;20028;-45
2022/09/12 03:52:24;;;;;;;23.30;14.88;;;13.20;99.90;;;;;;5072290;28;20096;-45
2022/09/12 03:54:49;;;;;;;18.00;13.73;;;13.10;99.90;;;;;;5072401;28;20484;-45
2022/09/12 03:57:15;;;;;;;28.13;13.50;;;13.10;99.90;;;;;;5072118;28;20025;-43
2022/09/12 03:59:40;;;;;;;22.60;15.02;;;13.10;99.90;;;;;;5071673;28;20028;-44
2022/09/12 04:02:06;;;;;;;24.58;14.45;;;13.10;99.90;;;;;;5072911;28;20046;-42
2022/09/12 04:04:32;;;;;;;19.15;13.98;;;13.10;99.90;;;;;;5072278;28;20024;-43
2022/09/12 04:06:57;;;;;;;22.25;13.80;;;13.10;99.90;;;;;;5071904;28;20016;-44
2022/09/12 04:09:23;;;;;;;21.88;14.57;;;13.00;99.90;;;;;;5072162;28;20485;-44
2022/09/12 04:11:48;;;;;;;18.45;13.38;;;13.10;99.90;;;;;;5072077;28;20438;-46
2022/09/12 04:14:14;;;;;;;19.58;13.60;;;13.10;99.90;;;;;;5071722;28;20442;-46
2022/09/12 04:16:39;;;;;;;17.38;12.82;;;13.00;99.90;;;;;;5071692;28;20070;-45
2022/09/12 04:19:05;;;;;;;24.70;14.48;;;13.00;99.90;;;;;;5092730;22;20044;-43
2022/09/12 04:21:30;;;;;;;27.83;15.20;;;13.00;99.90;;;;;;5054358;28;20020;-46
2022/09/12 04:23:56;;;;;;;18.50;14.13;;;12.90;99.90;;;;;;5071418;28;20024;-45
2022/09/12 04:26:22;;;;;;;19.00;14.07;;;12.90;99.90;;;;;;5071820;28;20063;-46
2022/09/12 04:28:52;;;;;;;19.85;13.93;;;12.90;99.90;;;;;;5071587;28;20012;-43
2022/09/12 04:31:19;;;;;;;21.42;12.75;;;12.90;99.90;;;;;;5071803;28;20039;-45
2022/09/12 04:33:45;;;;;;;20.27;12.68;;;12.80;99.90;;;;;;5071449;28;20103;-48
2022/09/12 04:36:16;;;;;;;17.95;14.20;;;12.80;99.90;;;;;;5072372;28;20519;-42
2022/09/12 04:38:46;;;;;;;19.75;13.15;;;12.80;99.90;;;;;;5071496;28;20056;-43
2022/09/12 04:41:31;;;;;;;22.60;12.90;;;12.80;99.90;;;;;;5071685;28;20089;-45
2022/09/12 04:44:02;;;;;;;21.45;13.57;;;12.70;99.90;;;;;;5071439;28;20392;-42
2022/09/12 04:46:31;;;;;;;18.73;13.50;;;12.80;99.90;;;;;;5071579;28;20127;-45
2022/09/12 04:48:56;;;;;;;21.73;14.02;;;12.80;99.90;;;;;;5071306;28;20020;-45
2022/09/12 04:51:28;;;;;;;21.35;13.98;;;12.80;99.90;;;;;;5071488;28;20036;-44
2022/09/12 04:53:56;;;;;;;19.65;14.98;;;12.80;99.90;;;;;;5071472;28;20016;-48
2022/09/12 04:56:22;;;;;;;22.92;14.98;;;12.90;99.90;;;;;;5071576;28;20098;-48
2022/09/12 04:58:48;;;;;;;21.70;15.23;;;12.90;99.90;;;;;;5070997;28;20028;-47
2022/09/12 05:01:17;;;;;;;26.13;15.57;;;12.90;99.90;;;;;;5071549;28;20020;-45
2022/09/12 05:03:43;;;;;;;21.48;15.15;;;12.90;99.90;;;;;;5071348;28;20021;-47
2022/09/12 05:06:12;;;;;;;23.05;15.15;;;13.00;99.90;;;;;;5071563;28;20012;-48
2022/09/12 05:08:37;;;;;;;22.40;15.45;;;13.00;99.90;;;;;;5071700;28;20056;-43
2022/09/12 05:11:06;;;;;;;24.88;14.52;;;12.90;99.90;;;;;;5072854;28;20071;-48
2022/09/12 05:13:32;;;;;;;24.90;15.57;;;12.90;99.90;;;;;;5075753;28;20476;-44
2022/09/12 05:15:59;;;;;;;25.23;15.32;;;12.90;99.90;;;;;;5075592;28;20368;-45
2022/09/12 05:18:25;;;;;;;20.48;14.52;;;13.00;99.90;;;;;;5075039;28;20064;-44
2022/09/12 05:20:52;;;;;;;21.63;14.60;;;13.00;99.90;;;;;;5075627;28;20033;-44
2022/09/12 05:23:17;;;;;;;25.50;16.10;;;13.10;99.90;;;;;;5057977;28;20044;-49
2022/09/12 05:25:54;;;;;;;22.25;15.80;;;13.10;99.90;;;;;;5057915;28;20395;-48
2022/09/12 05:28:20;;;;;;;23.00;15.50;;;13.20;99.90;;;;;;5075665;28;20024;-47
2022/09/12 05:30:46;;;;;;;20.55;15.05;;;13.20;99.90;;;;;;5075886;28;20020;-44
2022/09/12 05:33:13;;;;;;;28.08;15.52;;;13.20;99.90;;;;;;5075680;28;20073;-45
2022/09/12 05:35:39;;;;;;;27.52;15.70;;;13.30;99.90;;;;;;5075992;28;20033;-44
2022/09/12 05:38:05;;;;;;;18.13;14.60;;;13.30;99.90;;;;;;5075361;28;20027;-45
2022/09/12 05:40:32;;;;;;;22.55;15.07;;;13.40;99.90;;;;;;5057695;28;20519;-43
2022/09/12 05:42:58;;;;;;;29.48;15.38;;;13.50;99.90;;;;;;5075165;28;20032;-46
2022/09/12 05:45:24;;;;;;;19.35;14.07;;;13.60;99.90;;;;;;5075090;28;20426;-43
2022/09/12 05:47:49;;;;;;;19.40;13.82;;;13.70;99.90;;;;;;5075425;28;20025;-42
2022/09/12 05:50:15;;;;;;;21.88;14.38;;;13.70;99.90;;;;;;5057161;28;20474;-46
2022/09/12 05:52:40;;;;;;;19.13;14.20;;;13.80;99.90;;;;;;5074842;28;20035;-43
2022/09/12 05:55:06;;;;;;;18.42;14.55;;;13.80;99.90;;;;;;5074965;28;20016;-43
2022/09/12 05:57:32;;;;;;;18.73;14.05;;;13.90;99.90;;;;;;5074220;28;20038;-41
2022/09/12 05:59:58;;;;;;;18.08;15.07;;;14.00;99.90;;;;;;5075081;28;20506;-43
2022/09/12 06:02:24;;;;;;;19.48;14.60;;;14.10;99.90;;;;;;5074480;28;20028;-44
2022/09/12 06:04:49;;;;;;;20.92;14.75;;;14.20;99.90;;;;;;5074866;28;20548;-47
2022/09/12 06:07:15;;;;;;;24.35;13.88;;;14.20;99.90;;;;;;5056788;28;20034;-40
2022/09/12 06:09:41;;;;;;;18.73;14.00;;;14.30;99.90;;;;;;5074524;28;20035;-41
2022/09/12 06:12:07;;;;;;;16.95;13.40;;;14.30;99.90;;;;;;5074363;28;20043;-43
2022/09/12 06:14:32;;;;;;;20.70;14.18;;;14.40;99.90;;;;;;5075100;28;20024;-43
2022/09/12 06:16:58;;;;;;;24.90;13.75;;;14.50;99.90;;;;;;5074360;28;20032;-46
2022/09/12 06:19:26;;;;;;;17.40;13.07;;;14.60;99.90;;;;;;5074175;28;20032;-46
2022/09/12 06:21:52;;;;;;;17.25;12.77;;;14.80;99.90;;;;;;5074058;28;20047;-42
2022/09/12 06:24:19;;;;;;;18.77;13.45;;;15.10;99.90;;;;;;5056467;28;20020;-43
2022/09/12 06:26:49;;;;;;;17.00;13.32;;;15.50;99.90;;;;;;5074345;28;20021;-44
2022/09/12 06:29:15;;;;;;;16.10;12.73;;;15.90;99.90;;;;;;5055902;28;20048;-43
2022/09/12 06:31:42;;;;;;;16.77;12.55;;;16.40;99.90;;;;;;5073985;28;20076;-47
2022/09/12 06:34:10;;;;;;;12.88;11.02;;;16.80;99.90;;;;;;5073811;28;20495;-43
2022/09/12 06:36:39;;;;;;;14.27;11.93;;;17.30;99.90;;;;;;5074049;28;20060;-45
2022/09/12 06:39:15;;;;;;;14.30;9.90;;;17.80;99.90;;;;;;5073594;28;20405;-43
2022/09/12 06:41:40;;;;;;;12.30;10.32;;;18.20;99.90;;;;;;5074634;28;20536;-42
2022/09/12 06:44:06;;;;;;;16.65;10.93;;;18.50;99.90;;;;;;5073586;28;20109;-44
2022/09/12 06:46:32;;;;;;;12.20;10.40;;;18.70;99.90;;;;;;5073597;28;20029;-46
2022/09/12 06:48:59;;;;;;;16.80;10.10;;;18.90;99.90;;;;;;5073568;28;20025;-48
2022/09/12 06:51:26;;;;;;;12.38;9.48;;;19.40;99.90;;;;;;5073663;28;20082;-43
2022/09/12 06:53:54;;;;;;;15.50;10.90;;;20.10;99.90;;;;;;5074428;28;20562;-44
2022/09/12 06:56:22;;;;;;;10.70;9.35;;;20.00;99.90;;;;;;5073746;28;20040;-50
2022/09/12 06:58:50;;;;;;;13.70;9.45;;;20.20;99.90;;;;;;5073089;28;20102;-43
2022/09/12 07:01:21;;;;;;;10.38;9.25;;;20.40;99.90;;;;;;5073913;28;20020;-43
2022/09/12 07:03:48;;;;;;;11.10;9.18;;;20.30;99.90;;;;;;5073127;28;20056;-49
2022/09/12 07:06:16;;;;;;;9.68;8.68;;;20.60;99.90;;;;;;5073580;28;20042;-43
2022/09/12 07:08:42;;;;;;;14.45;9.57;;;21.10;99.90;;;;;;5073817;28;20102;-44
2022/09/12 07:11:30;;;;;;;10.13;8.85;;;21.40;99.90;;;;;;5073682;28;20025;-44
2022/09/12 07:13:58;;;;;;;10.30;8.43;;;21.20;99.90;;;;;;5073387;28;20013;-43
2022/09/12 07:16:24;;;;;;;8.48;7.68;;;21.40;99.90;;;;;;5055893;28;20082;-43
2022/09/12 07:18:54;;;;;;;13.88;8.65;;;21.70;99.90;;;;;;5073385;28;20407;-41
2022/09/12 07:21:21;;;;;;;11.00;9.05;;;21.80;99.90;;;;;;5073385;28;20392;-45
2022/09/12 07:23:46;;;;;;;11.02;8.75;;;21.80;99.90;;;;;;5072944;28;20020;-44
2022/09/12 07:26:13;;;;;;;10.15;9.07;;;22.10;99.90;;;;;;5073138;28;20377;-44
2022/09/12 07:28:39;;;;;;;9.45;8.38;;;22.30;99.90;;;;;;5072897;28;20090;-44
2022/09/12 07:31:07;;;;;;;14.32;8.57;;;21.90;99.90;;;;;;5072904;28;20100;-42
2022/09/12 07:33:34;;;;;;;10.95;8.02;;;22.10;99.90;;;;;;5071773;28;20035;-44
2022/09/12 07:36:02;;;;;;;11.65;7.80;;;22.50;99.90;;;;;;5072817;28;20369;-44
2022/09/12 07:38:28;;;;;;;11.43;9.25;;;22.70;99.90;;;;;;5072900;28;20025;-47
2022/09/12 07:40:53;;;;;;;8.90;7.55;;;23.00;99.90;;;;;;5072627;28;20048;-46
2022/09/12 07:43:19;;;;;;;9.90;7.70;;;23.30;99.40;;;;;;5072541;28;20032;-47
2022/09/12 07:45:45;;;;;;;11.48;8.55;;;23.60;99.00;;;;;;5072826;28;20060;-48
2022/09/12 07:48:10;;;;;;;10.43;7.15;;;24.00;99.00;;;;;;5072720;28;20025;-50
2022/09/12 07:50:37;;;;;;;9.48;8.48;;;24.30;98.20;;;;;;5072664;28;20100;-43
2022/09/12 07:53:04;;;;;;;12.18;9.02;;;24.30;97.80;;;;;;5072282;28;20035;-50
2022/09/12 07:55:29;;;;;;;8.32;7.43;;;24.20;97.90;;;;;;5072518;28;20068;-45
2022/09/12 07:57:55;;;;;;;10.13;7.75;;;23.70;98.60;;;;;;5071812;28;20025;-48
2022/09/12 08:00:21;;;;;;;8.60;7.70;;;23.50;99.20;;;;;;5072703;28;20013;-41
2022/09/12 08:02:51;;;;;;;8.25;7.45;;;23.70;99.30;;;;;;5072582;28;20074;-44
2022/09/12 08:05:17;;;;;;;8.75;7.90;;;23.70;98.70;;;;;;5073135;28;20387;-45
2022/09/12 08:07:42;;;;;;;8.82;7.93;;;24.00;98.60;;;;;;5072076;28;20024;-42
2022/09/12 08:10:08;;;;;;;10.07;8.48;;;24.20;98.20;;;;;;5071848;28;20028;-48
2022/09/12 08:12:34;;;;;;;9.60;8.68;;;24.30;97.90;;;;;;5071785;28;20024;-50
2022/09/12 08:14:59;;;;;;;9.73;7.88;;;24.50;97.50;;;;;;5072201;28;20020;-44
2022/09/12 08:17:25;;;;;;;10.57;9.50;;;23.90;98.00;;;;;;5054182;28;20032;-46
2022/09/12 08:19:51;;;;;;;10.63;8.73;;;23.40;98.90;;;;;;5071804;28;20111;-43
2022/09/12 08:22:20;;;;;;;10.02;8.02;;;22.90;99.90;;;;;;5071598;28;20466;-46
2022/09/12 08:24:49;;;;;;;11.65;9.15;;;22.50;99.90;;;;;;5071756;28;20093;-48
2022/09/12 08:27:15;;;;;;;11.35;8.93;;;22.40;99.90;;;;;;5071909;28;20021;-45
2022/09/12 08:29:41;;;;;;;9.25;8.35;;;22.10;99.90;;;;;;5071874;28;20020;-49
2022/09/12 08:32:06;;;;;;;13.20;9.80;;;21.90;99.90;;;;;;5071681;28;20025;-46
2022/09/12 08:34:32;;;;;;;11.25;10.05;;;21.70;99.90;;;;;;5071980;28;20020;-46
2022/09/12 08:36:58;;;;;;;12.68;9.95;;;21.50;99.90;;;;;;5071725;28;20024;-45
2022/09/12 08:39:23;;;;;;;13.27;8.13;;;21.30;99.90;;;;;;5053599;28;20047;-44
2022/09/12 08:42:04;;;;;;;10.98;9.82;;;21.70;99.90;;;;;;5071500;28;20025;-45
2022/09/12 08:44:49;;;;;;;9.30;8.40;;;22.60;99.90;;;;;;5071679;28;20027;-44
2022/09/12 08:47:38;;;;;;;9.70;8.63;;;23.30;99.90;;;;;;5071638;28;20029;-43
2022/09/12 08:50:14;;;;;;;12.18;7.80;;;24.00;99.60;;;;;;5071153;28;20503;-44
2022/09/12 08:53:01;;;;;;;9.07;7.60;;;24.60;99.00;;;;;;5071582;28;20025;-44
2022/09/12 08:55:42;;;;;;;9.57;7.68;;;24.90;98.10;;;;;;5071580;28;20021;-46
2022/09/12 08:58:13;;;;;;;8.38;7.55;;;25.30;98.10;;;;;;5053515;28;20496;-44
2022/09/12 09:00:52;;;;;;;7.65;6.80;;;25.90;96.80;;;;;;5071603;28;20115;-46
2022/09/12 09:03:18;;;;;;;7.60;6.90;;;26.60;96.10;;;;;;5071206;28;20016;-44
2022/09/12 09:05:53;;;;;;;7.82;7.03;;;28.10;94.90;;;;;;5071037;28;20036;-45
2022/09/12 09:08:34;;;;;;;7.63;6.93;;;27.70;94.40;;;;;;5071015;28;20107;-47
2022/09/12 09:11:02;;;;;;;7.75;6.18;;;27.60;93.40;;;;;;5071166;28;20020;-43
2022/09/12 09:16:49;;;;;;;6.72;5.85;;;27.30;93.20;;;;;;5071463;28;20043;-48
2022/09/12 09:19:21;;;;;;;7.10;6.40;;;26.90;93.90;;;;;;5071113;28;20036;-44
2022/09/12 09:22:09;;;;;;;8.05;5.60;;;26.90;93.90;;;;;;5071574;28;20024;-50
2022/09/12 09:24:58;;;;;;;7.63;6.57;;;26.80;94.10;;;;;;5070685;28;20033;-42
2022/09/12 09:27:42;;;;;;;7.78;6.95;;;26.40;94.40;;;;;;5053235;28;20025;-51
2022/09/12 09:30:17;;;;;;;6.63;6.03;;;26.10;94.60;;;;;;5071770;28;20021;-45
2022/09/12 09:32:47;;;;;;;7.80;7.00;;;25.70;94.50;;;;;;5070969;28;20488;-45
2022/09/12 09:35:38;;;;;;;9.15;7.22;;;25.40;95.30;;;;;;5071096;28;20025;-46
2022/09/12 09:38:23;;;;;;;7.82;6.32;;;25.00;95.70;;;;;;5071194;28;20028;-45
2022/09/12 09:41:09;;;;;;;9.70;6.65;;;24.90;95.50;;;;;;5071529;28;20028;-42
2022/09/12 09:43:37;;;;;;;8.02;6.55;;;24.60;96.60;;;;;;5071272;28;20032;-47
2022/09/12 09:46:03;;;;;;;8.25;6.43;;;24.20;97.90;;;;;;5070877;28;20430;-43
2022/09/12 09:48:35;;;;;;;9.13;6.43;;;24.40;97.70;;;;;;5071197;28;20079;-48
2022/09/12 09:51:03;;;;;;;7.97;7.18;;;24.60;97.10;;;;;;5071082;28;20028;-49
2022/09/12 09:53:55;;;;;;;6.28;5.68;;;24.60;96.90;;;;;;5071406;28;20096;-46
2022/09/12 09:56:36;;;;;;;7.65;6.57;;;24.60;97.30;;;;;;5071009;28;20096;-46
2022/09/12 09:59:31;;;;;;;6.65;5.97;;;24.40;97.20;;;;;;5074046;28;20035;-44
2022/09/12 10:02:02;;;;;;;6.13;5.53;;;24.40;98.00;;;;;;5074376;28;20024;-42
2022/09/12 10:04:38;;;;;;;6.50;5.90;;;24.60;98.50;;;;;;5075063;28;20247;-48
2022/09/12 10:07:04;;;;;;;6.45;5.68;;;24.80;97.30;;;;;;5074535;28;20035;-46
2022/09/12 10:09:32;;;;;;;5.47;4.82;;;24.90;96.60;;;;;;5074212;28;20023;-48
2022/09/12 10:12:00;;;;;;;5.80;4.57;;;24.90;96.80;;;;;;5074561;28;20034;-46
2022/09/12 10:14:36;;;;;;;8.73;5.55;;;24.60;96.30;;;;;;5074763;28;20082;-50
2022/09/12 10:17:27;;;;;;;6.90;6.13;;;25.10;96.20;;;;;;5074299;28;20074;-47
2022/09/12 10:19:53;;;;;;;6.05;4.95;;;25.10;95.50;;;;;;5070725;22;20046;-47
2022/09/12 10:22:22;;;;;;;5.82;5.13;;;25.10;96.00;;;;;;5033615;28;20052;-45
2022/09/12 10:24:51;;;;;;;5.88;5.38;;;25.30;95.90;;;;;;5034053;28;20485;-39
2022/09/12 10:27:27;;;;;;;5.70;4.97;;;25.20;95.10;;;;;;5034273;28;20532;-47
2022/09/12 10:30:00;;;;;;;7.20;5.40;;;25.20;95.50;;;;;;5033915;28;20087;-46
2022/09/12 10:32:29;;;;;;;5.90;5.38;;;25.30;94.40;;;;;;5033925;28;20014;-50
2022/09/12 10:35:00;;;;;;;5.63;5.13;;;25.00;93.60;;;;;;5034560;28;20026;-42
2022/09/12 10:37:33;;;;;;;5.32;4.90;;;24.80;93.60;;;;;;5034344;28;20074;-45
2022/09/12 10:40:00;;;;;;;10.05;5.18;;;24.60;93.90;;;;;;5034008;28;20152;-44
2022/09/12 10:42:44;;;;;;;5.15;4.65;;;24.50;94.10;;;;;;5033717;28;20029;-44
2022/09/12 10:45:28;;;;;;;4.53;4.13;;;24.50;94.20;;;;;;5033905;28;20021;-44
2022/09/12 10:47:57;;;;;;;7.00;4.93;;;24.40;94.60;;;;;;5015991;28;20026;-43
2022/09/12 10:50:29;;;;;;;7.10;6.18;;;24.50;95.10;;;;;;5033782;28;20574;-40
2022/09/12 10:53:30;;;;;;;4.88;4.47;;;24.60;94.60;;;;;;5033377;28;20100;-46
2022/09/12 10:56:17;;;;;;;8.00;5.10;;;24.60;95.10;;;;;;5033716;28;20072;-44
2022/09/12 10:58:42;;;;;;;6.97;5.60;;;24.60;95.00;;;;;;5033399;28;20493;-46
2022/09/12 11:01:30;;;;;;;8.90;5.80;;;24.70;95.50;;;;;;5033610;28;20031;-46
2022/09/12 11:04:17;;;;;;;6.72;5.47;;;24.80;95.40;;;;;;5033267;28;20037;-45
2022/09/12 11:07:08;;;;;;;7.55;6.63;;;24.80;96.00;;;;;;5033684;28;20120;-47
2022/09/12 11:09:52;;;;;;;9.32;6.35;;;24.70;95.20;;;;;;5032268;28;20026;-44
2022/09/12 11:12:35;;;;;;;11.60;6.00;;;24.50;95.10;;;;;;5033045;28;20021;-40
2022/09/12 11:15:42;;;;;;;7.32;5.50;;;24.30;95.70;;;;;;5015577;28;20279;-44
2022/09/12 11:18:18;;;;;;;7.38;5.90;;;24.20;96.10;;;;;;4994401;28;20033;-44
2022/09/12 11:21:08;;;;;;;7.53;6.20;;;24.10;96.20;;;;;;5033633;28;20600;-47
2022/09/12 11:24:04;;;;;;;5.93;5.30;;;24.20;96.20;;;;;;5033644;28;20319;-41
2022/09/12 11:26:45;;;;;;;8.15;5.85;;;24.10;96.30;;;;;;5033494;28;20104;-42
2022/09/12 11:29:23;;;;;;;6.05;5.45;;;24.00;95.60;;;;;;5033880;28;20021;-46
2022/09/12 11:32:10;;;;;;;8.95;5.70;;;24.00;95.90;;;;;;5033142;28;20029;-44
2022/09/12 11:35:04;;;;;;;10.05;5.70;;;23.90;96.00;;;;;;5033261;28;20021;-45
2022/09/12 11:38:27;;;;;;;7.32;5.82;;;23.80;96.80;;;;;;5033130;28;20025;-49
2022/09/12 11:40:59;;;;;;;6.72;6.05;;;23.70;96.30;;;;;;4952961;29;20158;-45
2022/09/12 11:44:06;;;;;;;8.10;6.65;;;23.60;96.40;;;;;;4953803;29;20043;-45
2022/09/12 11:46:35;;;;;;;7.03;5.57;;;23.50;96.60;;;;;;4998403;28;20049;-43
2022/09/12 11:49:12;;;;;;;6.00;5.47;;;23.50;96.20;;;;;;5015508;28;20029;-42
2022/09/12 11:51:58;;;;;;;5.25;4.75;;;23.50;96.50;;;;;;5033845;28;20021;-45
2022/09/12 11:54:59;;;;;;;6.47;4.40;;;23.40;96.20;;;;;;5034215;28;20385;-46
2022/09/12 11:57:42;;;;;;;7.50;5.13;;;23.30;96.90;;;;;;5033122;28;20055;-48
2022/09/12 12:00:20;;;;;;;5.05;4.57;;;23.20;96.20;;;;;;5032634;28;20029;-46
2022/09/12 12:03:12;;;;;;;6.50;3.78;;;23.20;96.20;;;;;;5032323;28;20516;-40
2022/09/12 12:05:52;;;;;;;5.05;4.50;;;23.20;96.20;;;;;;5032642;28;20024;-41
2022/09/12 12:08:21;;;;;;;7.55;4.80;;;23.20;96.70;;;;;;5032269;28;20489;-41
2022/09/12 12:10:55;;;;;;;4.70;4.28;;;23.20;96.20;;;;;;5032451;28;20035;-45
2022/09/12 12:13:26;;;;;;;7.68;4.38;;;23.20;97.00;;;;;;5032336;28;20096;-44
2022/09/12 12:15:57;;;;;;;5.03;4.55;;;22.90;96.60;;;;;;5014661;28;20136;-47
2022/09/12 12:18:25;;;;;;;5.90;4.15;;;23.30;96.10;;;;;;5031973;28;20029;-46
2022/09/12 12:20:52;;;;;;;5.32;4.80;;;23.30;96.50;;;;;;5032017;28;20115;-43
2022/09/12 12:23:30;;;;;;;6.38;4.88;;;23.30;95.80;;;;;;5032321;28;20034;-44
2022/09/12 12:26:00;;;;;;;4.22;3.80;;;23.30;95.60;;;;;;5035075;28;20083;-44
2022/09/12 12:28:41;;;;;;;4.50;3.90;;;23.20;95.50;;;;;;5039128;28;20064;-45
2022/09/12 12:31:08;;;;;;;5.82;3.60;;;23.30;95.40;;;;;;5032141;28;20035;-46
2022/09/12 12:33:36;;;;;;;6.07;3.22;;;23.30;95.60;;;;;;5031681;28;20079;-42
2022/09/12 12:36:06;;;;;;;6.18;3.47;;;23.30;94.90;;;;;;5014264;28;20120;-43
2022/09/12 12:38:32;;;;;;;6.97;3.75;;;23.30;95.00;;;;;;5031704;28;20037;-49
2022/09/12 12:41:16;;;;;;;4.25;3.53;;;23.30;95.50;;;;;;5031904;28;20026;-45
2022/09/12 12:43:43;;;;;;;3.92;3.60;;;23.40;95.20;;;;;;5031925;28;20113;-49
2022/09/12 12:46:11;;;;;;;3.83;3.53;;;23.40;94.00;;;;;;5031821;28;20520;-42
2022/09/12 12:48:50;;;;;;;3.83;3.13;;;23.40;94.70;;;;;;5031398;28;20060;-45
2022/09/12 12:51:32;;;;;;;3.28;3.08;;;23.50;94.50;;;;;;5031603;28;20445;-45
2022/09/12 12:54:00;;;;;;;4.78;3.45;;;23.50;94.60;;;;;;5031297;28;20489;-46
2022/09/12 12:56:27;;;;;;;3.75;3.45;;;23.60;94.50;;;;;;5031585;28;20076;-46
2022/09/12 12:59:11;;;;;;;4.07;3.60;;;23.60;94.30;;;;;;5031138;28;20021;-46
2022/09/12 13:01:53;;;;;;;4.70;3.58;;;23.60;94.00;;;;;;5031600;28;20026;-48
2022/09/12 13:04:23;;;;;;;4.50;3.35;;;23.70;93.20;;;;;;5031489;28;20026;-46
2022/09/12 13:07:00;;;;;;;3.53;3.22;;;23.60;93.40;;;;;;5031876;28;20374;-45
2022/09/12 13:09:30;;;;;;;5.68;3.53;;;23.50;93.90;;;;;;5032326;28;20021;-45